Time;durP1;ratioP1;P1;durP2;ratioP2;P2;SDS_P1;SDS_P2;PMS_P1;PMS_P2;Temp;Humidity;BMP_temperature;BMP_pressure;BME280_temperature;BME280_humidity;BME280_pressure;Samples;Min_cycle;Max_cycle;Signal;HPM_P1;HPM_P2
2021/12/25 00:00:10;;;;;;;13.32;11.73;;;;;;;2.84;100.00;91919.75;2109659;28;20450;-86
2021/12/25 00:01:11;;;;;;;12.48;10.80;;;;;;;2.92;100.00;91926.44;2114427;27;20107;-86
2021/12/25 00:02:17;;;;;;;13.30;11.13;;;;;;;2.89;100.00;91923.84;2115448;28;20047;-86
2021/12/25 00:03:18;;;;;;;14.40;11.70;;;;;;;2.78;100.00;91919.47;2115962;27;20027;-86
2021/12/25 00:04:20;;;;;;;15.93;11.82;;;;;;;2.77;100.00;91925.13;2106877;28;20103;-87
2021/12/25 00:05:21;;;;;;;13.77;11.85;;;;;;;3.01;100.00;91918.03;2101482;28;20397;-86
2021/12/25 00:06:23;;;;;;;14.00;11.25;;;;;;;3.01;100.00;91926.72;2103666;28;20107;-86
2021/12/25 00:07:32;;;;;;;14.88;12.13;;;;;;;3.15;100.00;91914.47;2107059;28;20020;-87
2021/12/25 00:08:33;;;;;;;13.27;11.88;;;;;;;2.93;100.00;91917.38;2110750;28;20584;-87
2021/12/25 00:09:34;;;;;;;13.60;11.10;;;;;;;3.00;100.00;91914.66;2106728;28;20031;-87
2021/12/25 00:10:35;;;;;;;13.32;10.85;;;;;;;3.13;100.00;91920.16;2109219;28;20056;-87
2021/12/25 00:11:36;;;;;;;14.98;11.45;;;;;;;3.14;100.00;91918.25;2101513;28;20029;-86
2021/12/25 00:12:37;;;;;;;14.60;12.35;;;;;;;3.03;100.00;91915.78;2108852;28;20024;-86
2021/12/25 00:13:39;;;;;;;15.82;11.77;;;;;;;3.02;100.00;91914.25;2109658;28;20055;-86
2021/12/25 00:14:40;;;;;;;14.02;11.80;;;;;;;3.06;100.00;91916.84;2104004;28;20036;-86
2021/12/25 00:15:42;;;;;;;15.82;12.00;;;;;;;2.95;100.00;91912.47;2110760;27;20027;-86
2021/12/25 00:16:44;;;;;;;15.32;11.50;;;;;;;3.01;100.00;91920.69;2115042;28;20069;-86
2021/12/25 00:17:45;;;;;;;14.77;11.75;;;;;;;2.97;100.00;91918.09;2106960;27;20098;-86
2021/12/25 00:18:46;;;;;;;14.68;11.93;;;;;;;2.98;100.00;91913.56;2106625;28;20023;-86
2021/12/25 00:19:47;;;;;;;14.15;11.48;;;;;;;2.92;100.00;91918.53;2098262;28;20016;-85
2021/12/25 00:20:49;;;;;;;14.98;12.13;;;;;;;2.90;100.00;91918.19;2106582;28;20024;-87
2021/12/25 00:21:50;;;;;;;14.90;12.50;;;;;;;2.77;100.00;91914.59;2104139;28;20411;-87
2021/12/25 00:22:51;;;;;;;13.45;11.60;;;;;;;2.89;100.00;91913.28;2099556;28;20035;-86
2021/12/25 00:23:52;;;;;;;13.00;11.57;;;;;;;2.86;100.00;91914.84;2108369;28;20042;-87
2021/12/25 00:24:53;;;;;;;14.73;11.90;;;;;;;2.86;100.00;91914.09;2106503;28;20113;-86
2021/12/25 00:26:00;;;;;;;13.65;11.35;;;;;;;2.79;100.00;91914.94;2106519;28;20034;-86
2021/12/25 00:27:09;;;;;;;13.38;11.13;;;;;;;2.79;100.00;91907.00;2103241;28;20703;-86
2021/12/25 00:30:43;;;;;;;13.98;10.85;;;;;;;2.88;100.00;91907.28;2107593;28;20024;-86
2021/12/25 00:34:50;;;;;;;15.48;10.52;;;;;;;2.87;100.00;91895.22;2076865;28;20041;-87
2021/12/25 00:35:51;;;;;;;14.68;10.65;;;;;;;2.97;100.00;91896.22;2088667;28;20703;-87
2021/12/25 00:36:54;;;;;;;12.90;10.80;;;;;;;2.96;100.00;91897.38;2097199;28;20048;-87
2021/12/25 00:37:58;;;;;;;14.30;11.25;;;;;;;2.93;100.00;91901.53;2107087;28;20662;-86
2021/12/25 00:39:02;;;;;;;14.65;10.80;;;;;;;2.89;100.00;91902.72;2114725;27;20020;-87
2021/12/25 00:40:04;;;;;;;13.98;10.63;;;;;;;2.82;100.00;91902.84;2098787;28;20434;-85
2021/12/25 00:41:06;;;;;;;13.90;10.57;;;;;;;2.79;100.00;91907.00;2106299;28;20416;-87
2021/12/25 00:42:07;;;;;;;13.13;10.70;;;;;;;2.90;100.00;91897.06;2097264;28;20060;-87
2021/12/25 00:43:08;;;;;;;13.65;11.07;;;;;;;2.78;100.00;91897.59;2098074;28;20027;-86
2021/12/25 00:44:09;;;;;;;15.48;11.27;;;;;;;2.77;100.00;91891.59;2104822;28;20031;-84
2021/12/25 00:45:13;;;;;;;13.23;10.95;;;;;;;2.79;100.00;91899.09;2104927;28;20516;-87
2021/12/25 00:46:15;;;;;;;12.32;10.77;;;;;;;2.75;100.00;91893.13;2098331;28;20031;-86
2021/12/25 00:47:16;;;;;;;11.25;10.05;;;;;;;2.72;100.00;91901.81;2100518;28;20031;-87
2021/12/25 00:48:18;;;;;;;14.75;11.13;;;;;;;2.70;100.00;91902.22;2089654;28;20115;-86
2021/12/25 00:49:19;;;;;;;14.18;10.85;;;;;;;2.67;100.00;91903.00;2089321;28;20021;-87
2021/12/25 00:50:20;;;;;;;14.07;11.68;;;;;;;2.69;100.00;91902.63;2096061;28;20037;-86
2021/12/25 00:51:21;;;;;;;13.70;10.73;;;;;;;2.70;100.00;91904.09;2100924;28;20066;-87
2021/12/25 00:52:22;;;;;;;13.32;11.13;;;;;;;2.68;100.00;91901.13;2106326;28;20028;-87
2021/12/25 00:53:23;;;;;;;13.07;10.63;;;;;;;2.69;100.00;91908.63;2101113;28;20020;-87
2021/12/25 00:54:25;;;;;;;11.68;10.20;;;;;;;2.68;100.00;91896.59;2101412;28;20099;-86
2021/12/25 00:55:26;;;;;;;12.45;10.75;;;;;;;2.69;100.00;91900.72;2101024;28;20021;-87
2021/12/25 00:56:27;;;;;;;13.43;10.30;;;;;;;2.71;100.00;91908.22;2094293;28;20025;-86
2021/12/25 00:57:28;;;;;;;14.65;11.02;;;;;;;2.74;100.00;91902.91;2093682;28;20029;-87
2021/12/25 00:58:29;;;;;;;14.82;10.93;;;;;;;2.68;100.00;91909.03;2110326;27;20034;-86
2021/12/25 00:59:30;;;;;;;12.80;10.65;;;;;;;2.67;100.00;91905.63;2097938;28;20066;-87
2021/12/25 01:00:31;;;;;;;13.90;10.63;;;;;;;2.69;100.00;91903.38;2102362;28;20063;-87
2021/12/25 01:01:32;;;;;;;11.30;9.82;;;;;;;2.68;100.00;91899.25;2114811;28;20023;-88
2021/12/25 01:02:33;;;;;;;12.48;10.05;;;;;;;2.71;100.00;91897.69;2113805;27;20114;-87
2021/12/25 01:03:34;;;;;;;12.32;10.43;;;;;;;2.75;100.00;91904.41;2109890;28;20031;-86
2021/12/25 01:04:35;;;;;;;13.88;10.48;;;;;;;2.87;100.00;91905.78;2106355;28;20059;-87
2021/12/25 01:05:37;;;;;;;12.13;10.73;;;;;;;2.92;100.00;91892.13;2105778;28;20027;-86
2021/12/25 01:06:39;;;;;;;11.10;9.70;;;;;;;2.88;100.00;91891.44;2103602;28;20481;-87
2021/12/25 01:07:41;;;;;;;14.40;9.98;;;;;;;2.93;100.00;91898.91;2104161;28;20374;-86
2021/12/25 01:08:46;;;;;;;12.98;10.27;;;;;;;2.81;100.00;91894.19;2106367;28;20058;-87
2021/12/25 01:09:49;;;;;;;13.43;10.35;;;;;;;2.75;100.00;91893.84;2095690;28;20016;-87
2021/12/25 01:10:50;;;;;;;11.90;9.80;;;;;;;2.80;100.00;91900.59;2103578;28;20089;-86
2021/12/25 01:11:52;;;;;;;12.70;10.27;;;;;;;2.91;100.00;91893.28;2090925;28;20023;-87
2021/12/25 01:13:08;;;;;;;14.98;9.63;;;;;;;2.87;100.00;91886.56;2090121;28;20122;-88
2021/12/25 01:14:21;;;;;;;13.65;10.68;;;;;;;2.82;100.00;91885.13;2095092;28;20025;-87
2021/12/25 01:15:31;;;;;;;13.18;9.80;;;;;;;2.74;100.00;91896.91;2106478;28;20028;-86
2021/12/25 01:24:33;;;;;;;11.93;8.43;;;;;;;2.50;100.00;91882.84;2081479;28;20455;-86
2021/12/25 01:28:14;;;;;;;10.00;7.95;;;;;;;2.38;100.00;91886.03;2100219;28;20028;-86
2021/12/25 01:30:48;;;;;;;10.95;8.52;;;;;;;2.45;100.00;91884.03;2120694;27;20047;-87
2021/12/25 01:36:56;;;;;;;10.80;8.77;;;;;;;2.39;100.00;91890.16;2123439;27;20092;-87
2021/12/25 01:47:55;;;;;;;7.45;6.45;;;;;;;2.55;100.00;91886.94;2116444;27;20061;-84
2021/12/25 01:48:56;;;;;;;8.07;7.00;;;;;;;2.50;100.00;91885.50;2114364;28;20054;-85
2021/12/25 01:50:18;;;;;;;7.95;6.43;;;;;;;2.51;100.00;91890.38;2105877;28;20503;-85
2021/12/25 01:51:19;;;;;;;9.52;7.90;;;;;;;2.49;100.00;91889.28;2103365;28;20027;-85
2021/12/25 01:52:26;;;;;;;7.63;6.63;;;;;;;2.46;100.00;91890.81;2093259;28;20658;-85
2021/12/25 01:53:27;;;;;;;8.82;6.10;;;;;;;2.47;100.00;91892.31;2091071;28;20111;-85
2021/12/25 01:54:28;;;;;;;7.20;6.32;;;;;;;2.47;100.00;91889.69;2088186;28;20047;-84
2021/12/25 01:55:30;;;;;;;8.80;6.03;;;;;;;2.50;100.00;91885.50;2093118;28;20025;-86
2021/12/25 01:56:33;;;;;;;8.70;7.50;;;;;;;2.51;100.00;91885.13;2091976;28;20063;-84
2021/12/25 01:57:36;;;;;;;7.47;6.53;;;;;;;2.62;100.00;91881.59;2089735;28;20108;-85
2021/12/25 01:58:38;;;;;;;7.80;6.45;;;;;;;2.62;100.00;91879.69;2097902;28;20560;-85
2021/12/25 01:59:39;;;;;;;6.88;6.18;;;;;;;2.55;100.00;91876.38;2097328;28;20564;-86
2021/12/25 02:00:46;;;;;;;7.07;6.25;;;;;;;2.50;100.00;91883.63;2096756;28;20020;-86
2021/12/25 02:01:47;;;;;;;8.70;6.47;;;;;;;2.49;100.00;91879.47;2099249;28;20021;-86
2021/12/25 02:02:53;;;;;;;6.80;5.47;;;;;;;2.48;100.00;91871.97;2097509;28;20115;-87
2021/12/25 02:03:54;;;;;;;9.38;6.32;;;;;;;2.35;100.00;91878.88;2106457;28;20362;-85
2021/12/25 02:04:55;;;;;;;6.53;5.82;;;;;;;2.32;100.00;91875.13;2097465;28;20086;-86
2021/12/25 02:06:00;;;;;;;7.25;5.72;;;;;;;2.28;100.00;91879.72;2105815;28;20031;-86
2021/12/25 02:07:01;;;;;;;8.65;5.60;;;;;;;2.23;100.00;91875.63;2101810;28;20028;-86
2021/12/25 02:09:47;;;;;;;;;;;;;;;2.13;100.00;91881.75;2148770;27;20108;-85
2021/12/25 02:10:48;;;;;;;6.45;4.45;;;;;;;2.07;100.00;91883.34;2130306;27;20011;-85
2021/12/25 02:11:50;;;;;;;4.68;4.22;;;;;;;2.07;100.00;91879.94;2121861;27;20084;-85
2021/12/25 02:12:51;;;;;;;5.28;4.78;;;;;;;2.00;100.00;91873.59;2130134;27;20077;-85
2021/12/25 02:13:52;;;;;;;5.30;4.80;;;;;;;2.05;100.00;91877.69;2121715;27;20099;-85
2021/12/25 02:14:54;;;;;;;4.97;4.45;;;;;;;2.07;100.00;91872.03;2130222;27;20079;-85
2021/12/25 02:15:57;;;;;;;6.20;4.60;;;;;;;2.20;100.00;91883.59;2113484;27;20558;-86
2021/12/25 02:17:07;;;;;;;5.72;4.53;;;;;;;2.13;100.00;91879.13;2113641;27;20027;-86
2021/12/25 02:19:23;;;;;;;8.82;4.05;;;;;;;2.06;100.00;91881.81;2119808;27;20019;-87
2021/12/25 02:20:31;;;;;;;4.32;3.92;;;;;;;2.18;100.00;91876.06;2118720;28;20019;-86
2021/12/25 02:21:57;;;;;;;4.78;4.25;;;;;;;2.23;100.00;91874.88;2117297;28;20119;-86
2021/12/25 02:23:04;;;;;;;3.80;3.45;;;;;;;2.15;100.00;91878.72;2120020;27;20499;-85
2021/12/25 02:24:14;;;;;;;4.97;4.10;;;;;;;2.19;100.00;91871.53;2114894;27;20066;-86
2021/12/25 02:25:19;;;;;;;3.78;3.47;;;;;;;2.20;100.00;91878.31;2115571;27;20527;-86
2021/12/25 02:26:24;;;;;;;5.15;3.70;;;;;;;2.20;100.00;91873.78;2122129;27;20019;-85
2021/12/25 02:27:27;;;;;;;3.80;3.33;;;;;;;2.26;100.00;91874.09;2114212;27;20026;-85
2021/12/25 02:28:28;;;;;;;4.57;3.45;;;;;;;2.29;100.00;91870.69;2121261;28;20106;-84
2021/12/25 02:29:29;;;;;;;4.03;3.58;;;;;;;2.23;100.00;91870.34;2104515;28;20021;-85
2021/12/25 02:30:31;;;;;;;5.38;3.40;;;;;;;2.47;100.00;91873.84;2104620;28;20028;-85
2021/12/25 02:31:33;;;;;;;5.53;4.00;;;;;;;2.32;100.00;91869.88;2104837;28;20017;-85
2021/12/25 02:32:37;;;;;;;4.45;3.63;;;;;;;2.31;100.00;91870.28;2104874;28;20020;-87
2021/12/25 02:33:43;;;;;;;4.20;3.47;;;;;;;2.46;100.00;91866.34;2105487;28;20028;-86
2021/12/25 02:34:44;;;;;;;3.83;3.53;;;;;;;2.44;100.00;91863.34;2114645;27;20066;-84
2021/12/25 02:35:46;;;;;;;3.78;2.80;;;;;;;2.58;100.00;91865.06;2113195;28;20038;-84
2021/12/25 02:36:46;;;;;;;3.40;3.10;;;;;;;2.46;100.00;91863.72;2113249;28;20153;-86
2021/12/25 02:37:48;;;;;;;4.25;3.85;;;;;;;2.51;100.00;91865.91;2113127;28;20412;-84
2021/12/25 02:38:50;;;;;;;7.05;3.05;;;;;;;2.64;100.00;91860.84;2105284;28;20048;-86
2021/12/25 02:39:57;;;;;;;4.85;2.90;;;;;;;2.73;100.00;91856.59;2113324;27;20031;-86
2021/12/25 02:40:58;;;;;;;4.93;3.58;;;;;;;2.78;100.00;91858.78;2121823;27;20046;-86
2021/12/25 02:42:03;;;;;;;4.88;3.30;;;;;;;2.82;100.00;91858.00;2121437;27;20027;-86
2021/12/25 02:43:11;;;;;;;3.42;2.95;;;;;;;2.94;100.00;91857.41;2113507;28;20028;-85
2021/12/25 02:44:13;;;;;;;3.30;3.00;;;;;;;2.96;100.00;91855.91;2113781;28;20119;-86
2021/12/25 02:45:20;;;;;;;4.97;3.72;;;;;;;3.10;100.00;91848.91;2113464;27;20079;-85
2021/12/25 02:46:24;;;;;;;5.18;3.22;;;;;;;3.15;100.00;91845.81;2121994;27;20138;-86
2021/12/25 02:47:30;;;;;;;4.50;3.42;;;;;;;3.06;100.00;91854.25;2113290;28;20411;-86
2021/12/25 02:48:41;;;;;;;5.40;3.33;;;;;;;3.19;100.00;91849.16;2120812;28;20068;-86
2021/12/25 02:49:52;;;;;;;3.38;2.88;;;;;;;3.22;100.00;91846.47;2107263;28;20057;-85
2021/12/25 02:50:53;;;;;;;3.42;3.13;;;;;;;3.18;100.00;91845.03;2108800;27;20027;-86
2021/12/25 02:51:54;;;;;;;5.95;3.63;;;;;;;3.22;100.00;91840.44;2112813;28;20051;-86
2021/12/25 02:52:58;;;;;;;3.78;2.55;;;;;;;3.26;100.00;91849.81;2104495;28;20078;-84
2021/12/25 02:53:59;;;;;;;3.83;2.85;;;;;;;3.34;100.00;91847.81;2105529;28;20115;-85
2021/12/25 02:55:00;;;;;;;3.88;2.70;;;;;;;3.31;100.00;91843.31;2104608;28;20017;-86
2021/12/25 02:56:04;;;;;;;3.22;2.80;;;;;;;3.29;100.00;91845.59;2108279;28;20106;-86
2021/12/25 02:57:06;;;;;;;5.20;2.80;;;;;;;3.25;100.00;91839.66;2113385;27;20518;-84
2021/12/25 02:58:08;;;;;;;3.92;2.97;;;;;;;3.27;100.00;91840.00;2112625;27;20028;-85
2021/12/25 02:59:12;;;;;;;3.10;2.78;;;;;;;3.28;100.00;91839.59;2121226;27;20023;-85
2021/12/25 03:00:13;;;;;;;5.10;2.35;;;;;;;3.63;100.00;91848.09;2122710;27;20380;-87
2021/12/25 03:01:17;;;;;;;5.30;3.10;;;;;;;3.61;100.00;91841.75;2119874;28;20035;-85
2021/12/25 03:02:19;;;;;;;3.28;2.72;;;;;;;3.62;100.00;91840.59;2112994;28;20031;-86
2021/12/25 03:03:33;;;;;;;4.72;3.08;;;;;;;3.65;100.00;91843.16;2104539;28;20035;-86
2021/12/25 03:04:36;;;;;;;3.42;2.70;;;;;;;3.72;100.00;91834.38;2112635;28;20357;-85
2021/12/25 03:05:38;;;;;;;4.35;2.97;;;;;;;3.74;100.00;91837.38;2096594;28;20025;-86
2021/12/25 03:06:39;;;;;;;3.42;2.90;;;;;;;3.76;100.00;91837.69;2096031;28;20036;-85
2021/12/25 03:07:40;;;;;;;4.88;2.80;;;;;;;3.77;100.00;91837.28;2105882;28;20016;-85
2021/12/25 03:08:42;;;;;;;3.25;2.85;;;;;;;3.78;100.00;91840.69;2104218;28;20016;-85
2021/12/25 03:09:44;;;;;;;3.65;3.10;;;;;;;3.69;100.00;91838.56;2104210;28;20509;-85
2021/12/25 03:10:45;;;;;;;5.45;2.80;;;;;;;3.84;100.00;91844.34;2104470;28;20032;-84
2021/12/25 03:11:46;;;;;;;3.47;3.15;;;;;;;4.04;100.00;91839.84;2104500;28;20016;-86
2021/12/25 03:13:04;;;;;;;3.85;2.90;;;;;;;3.97;100.00;91841.88;2104390;28;20114;-86
2021/12/25 03:14:23;;;;;;;3.78;3.05;;;;;;;3.90;100.00;91834.06;2100533;28;20066;-86
2021/12/25 03:15:40;;;;;;;5.35;2.88;;;;;;;3.85;100.00;91837.91;2100933;28;20118;-85
2021/12/25 03:16:42;;;;;;;3.45;2.95;;;;;;;3.82;100.00;91837.97;2100286;28;20436;-85
2021/12/25 03:17:46;;;;;;;3.45;2.60;;;;;;;3.72;100.00;91839.66;2104422;28;20027;-86
2021/12/25 03:18:51;;;;;;;2.85;2.47;;;;;;;3.66;100.00;91831.44;2104917;28;20044;-85
2021/12/25 03:19:55;;;;;;;4.05;2.65;;;;;;;3.62;100.00;91832.66;2105268;28;20020;-85
2021/12/25 03:21:01;;;;;;;2.78;2.42;;;;;;;3.51;100.00;91835.44;2100781;28;20070;-85
2021/12/25 03:22:06;;;;;;;3.38;2.30;;;;;;;3.65;100.00;91834.50;2104344;28;20024;-85
2021/12/25 03:23:10;;;;;;;4.10;2.53;;;;;;;3.67;100.00;91840.13;2107997;27;20474;-86
2021/12/25 03:24:12;;;;;;;3.80;2.70;;;;;;;3.66;100.00;91846.56;2107259;28;20596;-85
2021/12/25 03:25:15;;;;;;;3.70;2.65;;;;;;;3.60;100.00;91837.56;2097506;28;20033;-84
2021/12/25 03:26:16;;;;;;;3.58;2.50;;;;;;;3.56;100.00;91850.09;2098822;28;20417;-86
2021/12/25 03:27:17;;;;;;;4.18;2.80;;;;;;;3.57;100.00;91839.16;2102622;28;20055;-86
2021/12/25 03:28:22;;;;;;;3.30;2.53;;;;;;;3.64;100.00;91843.56;2107047;28;20130;-86
2021/12/25 03:29:25;;;;;;;5.03;2.90;;;;;;;3.70;100.00;91839.31;2098958;28;20484;-86
2021/12/25 03:30:26;;;;;;;6.07;2.70;;;;;;;3.72;100.00;91839.66;2097966;28;20024;-86
2021/12/25 03:31:31;;;;;;;6.95;2.75;;;;;;;3.75;100.00;91844.13;2098566;28;20021;-86
2021/12/25 03:32:36;;;;;;;3.72;2.80;;;;;;;3.97;100.00;91837.31;2103595;28;20020;-86
2021/12/25 03:33:39;;;;;;;5.15;3.17;;;;;;;4.00;100.00;91838.44;2091455;28;20055;-85
2021/12/25 03:34:40;;;;;;;6.40;2.95;;;;;;;3.98;100.00;91838.81;2094128;27;20071;-85
2021/12/25 03:35:41;;;;;;;5.00;3.05;;;;;;;4.09;100.00;91840.53;2110048;28;20028;-86
2021/12/25 03:36:43;;;;;;;4.75;2.88;;;;;;;4.01;100.00;91837.28;2112144;28;20051;-85
2021/12/25 03:37:44;;;;;;;3.90;2.97;;;;;;;3.97;100.00;91839.97;2106952;28;20509;-86
2021/12/25 03:38:46;;;;;;;5.68;3.55;;;;;;;3.96;100.00;91837.75;2104167;28;20032;-83
2021/12/25 03:39:51;;;;;;;6.00;3.15;;;;;;;4.01;100.00;91835.38;2098783;28;20021;-86
2021/12/25 03:40:59;;;;;;;5.65;3.40;;;;;;;4.21;100.00;91842.56;2093005;28;20355;-85
2021/12/25 03:42:00;;;;;;;4.28;3.30;;;;;;;4.21;100.00;91835.38;2100150;28;20024;-86
2021/12/25 03:43:06;;;;;;;5.25;2.95;;;;;;;4.18;100.00;91835.47;2114838;28;20495;-85
2021/12/25 03:44:08;;;;;;;4.07;3.15;;;;;;;4.21;100.00;91832.72;2092230;28;20068;-86
2021/12/25 03:45:09;;;;;;;4.85;3.20;;;;;;;4.19;100.00;91832.41;2097680;28;20119;-87
2021/12/25 03:46:12;;;;;;;9.50;3.35;;;;;;;4.15;100.00;91833.63;2091141;28;20048;-85
2021/12/25 03:47:25;;;;;;;5.15;3.25;;;;;;;4.43;100.00;91835.72;2098597;28;20070;-85
2021/12/25 03:53:08;;;;;;;4.20;3.35;;;;;;;4.37;100.00;91828.66;2101547;28;20112;-85
2021/12/25 03:57:40;;;;;;;3.95;3.20;;;;;;;4.15;100.00;91831.72;2110810;28;20483;-85
2021/12/25 03:58:42;;;;;;;6.63;4.00;;;;;;;4.12;100.00;91837.06;2104295;28;20424;-86
2021/12/25 03:59:47;;;;;;;5.53;3.55;;;;;;;4.07;100.00;91829.59;2097998;28;20017;-85
2021/12/25 04:00:51;;;;;;;6.97;3.60;;;;;;;3.99;100.00;91827.06;2097214;28;20031;-85
2021/12/25 04:02:01;;;;;;;4.82;2.90;;;;;;;3.98;100.00;91824.84;2092561;28;20621;-85
2021/12/25 04:03:09;;;;;;;4.07;2.92;;;;;;;3.85;100.00;91835.28;2097120;28;20080;-85
2021/12/25 04:04:25;;;;;;;5.50;3.15;;;;;;;3.81;100.00;91836.47;2091927;28;20095;-86
2021/12/25 04:05:41;;;;;;;4.57;3.22;;;;;;;3.84;100.00;91833.78;2102509;28;20028;-86
2021/12/25 04:07:19;;;;;;;4.45;2.85;;;;;;;3.88;100.00;91828.44;2106675;28;20016;-84
2021/12/25 04:08:18;;;;;;;3.05;2.72;;;;;;;3.90;100.00;91828.78;2106287;28;20027;-86
2021/12/25 04:09:23;;;;;;;4.10;2.50;;;;;;;3.87;100.00;91825.06;2100786;28;20536;-85
2021/12/25 04:10:25;;;;;;;4.60;2.92;;;;;;;3.93;100.00;91820.78;2096628;28;20047;-86
2021/12/25 04:11:29;;;;;;;4.15;2.92;;;;;;;3.92;100.00;91821.19;2093276;28;20020;-86
2021/12/25 04:12:30;;;;;;;3.75;3.20;;;;;;;3.92;100.00;91821.19;2099239;28;20038;-86
2021/12/25 04:13:32;;;;;;;4.70;3.20;;;;;;;3.88;100.00;91815.97;2098582;28;20530;-86
2021/12/25 04:14:34;;;;;;;3.22;2.92;;;;;;;3.85;100.00;91813.38;2098532;28;20050;-86
2021/12/25 04:15:37;;;;;;;2.97;2.53;;;;;;;3.73;100.00;91818.13;2106719;28;20032;-85
2021/12/25 04:16:42;;;;;;;3.53;3.20;;;;;;;3.69;100.00;91820.06;2115598;27;20464;-85
2021/12/25 04:17:43;;;;;;;4.35;2.60;;;;;;;3.67;100.00;91808.41;2114905;28;20023;-86
2021/12/25 04:18:44;;;;;;;4.85;2.60;;;;;;;3.64;100.00;91814.50;2114858;28;20042;-86
2021/12/25 04:19:48;;;;;;;5.05;2.60;;;;;;;3.56;100.00;91819.16;2105623;28;20012;-86
2021/12/25 04:20:53;;;;;;;10.20;2.50;;;;;;;3.53;100.00;91814.69;2097706;28;20027;-86
2021/12/25 04:22:43;;;;;;;3.42;2.78;;;;;;;3.50;100.00;91815.47;2091143;28;20020;-87
2021/12/25 04:23:24;;;;;;;3.00;2.35;;;;;;;3.50;100.00;91820.75;2107513;27;20031;-87
2021/12/25 04:24:28;;;;;;;6.95;2.72;;;;;;;3.43;100.00;91811.06;2107150;28;20098;-85
2021/12/25 04:25:34;;;;;;;3.03;2.72;;;;;;;3.38;100.00;91819.47;2099313;28;20078;-85
2021/12/25 04:26:42;;;;;;;2.17;1.98;;;;;;;3.48;100.00;91817.78;2103115;28;20561;-86
2021/12/25 04:27:43;;;;;;;2.95;2.60;;;;;;;3.47;100.00;91816.31;2094611;28;20029;-87
2021/12/25 04:29:01;;;;;;;6.72;2.92;;;;;;;3.45;100.00;91821.97;2099474;28;20101;-86
2021/12/25 04:30:18;;;;;;;4.07;2.78;;;;;;;3.36;100.00;91813.81;2108889;28;20031;-86
2021/12/25 05:03:13;;;;;;;;;;;;;;;2.73;100.00;91811.72;2117535;27;20051;-86
2021/12/25 05:04:30;;;;;;;4.70;2.85;;;;;;;2.90;100.00;91814.53;2107691;28;19941;-88
2021/12/25 05:05:33;;;;;;;3.90;2.88;;;;;;;2.87;100.00;91815.31;2100113;28;20029;-86
2021/12/25 05:06:38;;;;;;;3.67;3.08;;;;;;;2.85;100.00;91807.78;2106716;27;20019;-86
2021/12/25 05:07:42;;;;;;;6.43;2.92;;;;;;;3.03;100.00;91810.19;2114409;28;20024;-88
2021/12/25 05:08:43;;;;;;;3.95;3.20;;;;;;;3.22;100.00;91814.03;2098848;28;20025;-87
2021/12/25 05:09:44;;;;;;;10.45;4.00;;;;;;;3.42;100.00;91811.47;2094776;28;20041;-88
2021/12/25 05:10:45;;;;;;;4.45;3.70;;;;;;;3.43;100.00;91808.44;2097959;28;20024;-88
2021/12/25 05:11:46;;;;;;;6.72;3.80;;;;;;;3.40;100.00;91816.41;2101827;28;20115;-88
2021/12/25 05:12:47;;;;;;;4.90;3.60;;;;;;;3.46;100.00;91814.78;2089471;28;20035;-86
2021/12/25 05:13:49;;;;;;;4.45;4.05;;;;;;;3.68;100.00;91813.28;2095527;28;20048;-86
2021/12/25 05:14:50;;;;;;;7.80;3.83;;;;;;;3.74;100.00;91816.97;2098221;28;20020;-86
2021/12/25 05:15:51;;;;;;;6.75;3.72;;;;;;;3.72;100.00;91808.69;2095437;28;20447;-86
2021/12/25 05:16:53;;;;;;;6.20;4.05;;;;;;;3.68;100.00;91818.56;2102630;28;20076;-86
2021/12/25 05:18:01;;;;;;;6.30;3.88;;;;;;;3.68;100.00;91817.81;2097947;28;20393;-86
2021/12/25 05:19:03;;;;;;;5.40;3.78;;;;;;;3.69;100.00;91814.06;2102913;28;20099;-86
2021/12/25 05:20:05;;;;;;;4.97;3.75;;;;;;;3.77;100.00;91820.69;2089562;28;20029;-87
2021/12/25 05:21:07;;;;;;;6.93;4.63;;;;;;;3.88;100.00;91812.59;2092885;28;20416;-86
2021/12/25 05:22:09;;;;;;;5.55;4.40;;;;;;;3.95;100.00;91815.09;2090017;28;20501;-85
2021/12/25 05:23:10;;;;;;;5.40;3.60;;;;;;;3.97;100.00;91818.09;2090625;28;20029;-85
2021/12/25 05:24:11;;;;;;;6.10;3.88;;;;;;;4.07;100.00;91809.19;2106210;28;20047;-86
2021/12/25 05:25:12;;;;;;;5.05;4.18;;;;;;;4.03;100.00;91809.25;2089543;28;20028;-86
2021/12/25 05:26:14;;;;;;;5.93;4.18;;;;;;;4.13;100.00;91812.88;2094282;28;20708;-86
2021/12/25 05:27:16;;;;;;;8.25;4.28;;;;;;;4.27;100.00;91819.78;2096122;28;20024;-86
2021/12/25 05:28:24;;;;;;;7.82;4.55;;;;;;;4.34;100.00;91808.31;2097755;28;20119;-85
2021/12/25 05:29:32;;;;;;;6.28;4.70;;;;;;;4.36;100.00;91809.41;2106849;28;20801;-85
2021/12/25 05:30:34;;;;;;;8.75;4.63;;;;;;;4.41;100.00;91808.19;2098603;28;20780;-84
2021/12/25 05:31:36;;;;;;;4.57;3.97;;;;;;;4.30;100.00;91811.03;2093584;28;20032;-85
2021/12/25 05:32:37;;;;;;;8.10;3.83;;;;;;;4.27;100.00;91811.84;2093249;28;20108;-86
2021/12/25 05:33:39;;;;;;;8.25;4.45;;;;;;;4.25;100.00;91812.25;2094216;28;20428;-86
2021/12/25 05:34:40;;;;;;;4.75;3.88;;;;;;;4.28;100.00;91811.44;2101143;28;20689;-88
2021/12/25 05:35:41;;;;;;;5.43;4.35;;;;;;;4.32;100.00;91808.72;2094209;28;20024;-86
2021/12/25 05:36:42;;;;;;;6.68;4.13;;;;;;;4.38;100.00;91806.34;2105836;28;20027;-86
2021/12/25 05:37:43;;;;;;;7.88;3.70;;;;;;;4.45;100.00;91798.28;2114389;27;20043;-85
2021/12/25 05:39:00;;;;;;;9.38;4.53;;;;;;;4.39;100.00;91810.47;2121233;27;20023;-86
2021/12/25 05:40:04;;;;;;;5.93;4.05;;;;;;;4.72;100.00;91796.19;2099590;28;20036;-86
2021/12/25 05:41:06;;;;;;;4.60;3.70;;;;;;;4.56;100.00;91804.09;2097465;28;20513;-87
2021/12/25 05:42:11;;;;;;;5.80;3.88;;;;;;;4.51;100.00;91805.31;2097490;28;20081;-86
2021/12/25 05:43:17;;;;;;;5.63;3.78;;;;;;;4.39;100.00;91805.97;2091744;28;20402;-87
2021/12/25 05:44:18;;;;;;;6.75;3.50;;;;;;;4.38;100.00;91806.34;2104511;28;20412;-86
2021/12/25 05:45:21;;;;;;;4.65;3.72;;;;;;;4.34;100.00;91805.66;2100794;28;20028;-86
2021/12/25 05:46:25;;;;;;;4.72;3.38;;;;;;;4.27;100.00;91809.22;2113768;28;20110;-86
2021/12/25 05:47:27;;;;;;;5.35;4.25;;;;;;;4.33;100.00;91804.94;2104780;28;20055;-87
2021/12/25 05:48:28;;;;;;;6.18;4.07;;;;;;;4.25;100.00;91800.94;2103847;28;20024;-86
2021/12/25 05:49:29;;;;;;;7.45;3.58;;;;;;;4.18;100.00;91801.06;2095593;28;20100;-86
2021/12/25 05:50:30;;;;;;;4.50;3.65;;;;;;;4.17;100.00;91799.56;2089107;28;20072;-86
2021/12/25 05:51:33;;;;;;;6.65;3.95;;;;;;;4.15;100.00;91797.34;2104383;28;20020;-87
2021/12/25 05:52:34;;;;;;;3.95;3.53;;;;;;;4.14;100.00;91805.69;2106089;28;20629;-87
2021/12/25 05:53:38;;;;;;;6.20;3.85;;;;;;;4.13;100.00;91802.31;2106050;28;20056;-87
2021/12/25 05:54:39;;;;;;;5.65;3.95;;;;;;;4.10;100.00;91803.09;2106534;28;20042;-86
2021/12/25 05:55:46;;;;;;;6.68;3.58;;;;;;;4.11;100.00;91806.50;2097836;28;20033;-86
2021/12/25 05:56:52;;;;;;;5.13;3.28;;;;;;;4.04;100.00;91802.84;2099245;28;20074;-86
2021/12/25 05:57:53;;;;;;;6.57;3.70;;;;;;;4.02;100.00;91813.06;2107402;27;20162;-86
2021/12/25 05:58:54;;;;;;;6.18;3.50;;;;;;;4.03;100.00;91814.53;2106015;28;20488;-85
2021/12/25 05:59:55;;;;;;;5.28;3.33;;;;;;;3.98;100.00;91803.69;2097718;28;20035;-87
2021/12/25 06:00:56;;;;;;;4.95;3.28;;;;;;;4.04;100.00;91812.66;2097406;28;20798;-87
2021/12/25 06:01:57;;;;;;;5.00;3.30;;;;;;;4.06;100.00;91804.31;2097640;28;20066;-86
2021/12/25 06:02:58;;;;;;;7.93;3.40;;;;;;;4.01;100.00;91808.19;2097523;28;20059;-88
2021/12/25 06:04:00;;;;;;;3.92;3.08;;;;;;;3.95;100.00;91809.78;2097600;28;20020;-87
2021/12/25 06:05:04;;;;;;;4.00;3.08;;;;;;;3.93;100.00;91814.75;2097672;28;20028;-88
2021/12/25 06:06:07;;;;;;;5.05;3.75;;;;;;;3.90;100.00;91818.94;2098361;28;20067;-87
2021/12/25 06:07:08;;;;;;;7.25;3.30;;;;;;;3.93;100.00;91820.78;2106409;28;20468;-87
2021/12/25 06:08:09;;;;;;;5.30;3.33;;;;;;;3.86;100.00;91818.25;2105304;28;20031;-86
2021/12/25 06:09:10;;;;;;;4.72;3.80;;;;;;;3.87;100.00;91821.66;2092450;28;20586;-86
2021/12/25 06:10:21;;;;;;;7.82;4.00;;;;;;;3.83;100.00;91820.97;2098369;28;20461;-84
2021/12/25 06:11:23;;;;;;;;;;;;;;;3.78;100.00;91824.84;2086238;28;20071;-85
2021/12/25 06:12:25;;;;;;;3.85;2.83;;;;;;;3.84;100.00;91817.19;2089466;28;19909;-86
2021/12/25 06:13:26;;;;;;;3.75;3.28;;;;;;;3.90;100.00;91831.41;2086633;28;20817;-86